Time;durP1;ratioP1;P1;durP2;ratioP2;P2;SDS_P1;SDS_P2;PMS_P1;PMS_P2;Temp;Humidity;BMP_temperature;BMP_pressure;BME280_temperature;BME280_humidity;BME280_pressure;Samples;Min_cycle;Max_cycle;Signal;HPM_P1;HPM_P2
2022/03/01 00:01:25;;;;;;;9.03;4.00;;;;;;;2.75;51.75;101478.91;1753422;81;21036;-69
2022/03/01 00:03:51;;;;;;;6.95;3.72;;;;;;;2.67;51.52;101469.25;1753814;81;21627;-70
2022/03/01 00:06:19;;;;;;;7.58;3.90;;;;;;;2.55;51.18;101467.72;1753835;81;21059;-69
2022/03/01 00:08:45;;;;;;;8.20;3.77;;;;;;;2.46;51.64;101462.36;1726088;81;21099;-69
2022/03/01 00:11:13;;;;;;;8.70;4.00;;;;;;;2.47;52.67;101462.83;1753819;81;21017;-68
2022/03/01 00:13:39;;;;;;;8.25;3.77;;;;;;;2.61;53.78;101465.23;1726327;81;21584;-70
2022/03/01 00:16:07;;;;;;;7.65;3.85;;;;;;;2.64;53.09;101460.07;1753806;81;21038;-70
2022/03/01 00:18:35;;;;;;;9.25;4.25;;;;;;;2.62;52.62;101459.59;1726223;81;21033;-68
2022/03/01 00:21:01;;;;;;;9.05;4.10;;;;;;;2.59;52.46;101460.42;1753705;81;21079;-69
2022/03/01 00:23:28;;;;;;;8.40;3.83;;;;;;;2.45;51.50;101459.32;1753431;81;21061;-69
2022/03/01 00:25:56;;;;;;;10.32;4.05;;;;;;;2.31;52.88;101454.75;1754067;81;21161;-70
2022/03/01 00:28:22;;;;;;;6.90;3.52;;;;;;;2.33;53.37;101455.22;1753505;81;21036;-69
2022/03/01 00:30:50;;;;;;;7.35;4.17;;;;;;;2.36;53.47;101450.06;1753692;81;21120;-69
2022/03/01 00:33:16;;;;;;;6.97;3.65;;;;;;;2.45;53.25;101448.92;1753564;81;21004;-70
2022/03/01 00:35:42;;;;;;;6.50;3.65;;;;;;;2.38;52.34;101454.87;1753649;81;21080;-69
2022/03/01 00:38:09;;;;;;;9.65;4.05;;;;;;;2.40;53.17;101451.88;1753420;81;21565;-68
2022/03/01 00:40:35;;;;;;;5.80;3.52;;;;;;;2.36;53.59;101443.56;1753756;81;21517;-69
2022/03/01 00:43:02;;;;;;;7.12;3.67;;;;;;;2.24;53.09;101451.59;1753705;81;21979;-69
2022/03/01 00:45:29;;;;;;;7.33;3.55;;;;;;;2.22;53.62;101450.68;1753585;81;21027;-69
2022/03/01 00:47:58;;;;;;;8.05;3.47;;;;;;;2.17;52.84;101448.42;1754179;81;21489;-70
2022/03/01 00:50:25;;;;;;;6.17;3.45;;;;;;;2.14;54.27;101441.88;1753717;81;21071;-70
2022/03/01 00:52:51;;;;;;;7.25;4.00;;;;;;;2.24;54.99;101445.52;1777249;80;21032;-70
2022/03/01 00:55:20;;;;;;;8.75;4.00;;;;;;;2.24;54.33;101445.09;1784459;80;21112;-70
2022/03/01 00:57:48;;;;;;;9.78;4.30;;;;;;;2.25;54.89;101450.73;1784711;80;21733;-70
2022/03/01 01:00:16;;;;;;;7.87;3.87;;;;;;;2.31;54.05;101443.48;1784303;80;21107;-70
2022/03/01 01:02:43;;;;;;;9.50;4.75;;;;;;;2.13;54.98;101447.91;1784711;80;21088;-69
2022/03/01 01:05:09;;;;;;;7.50;3.67;;;;;;;1.93;54.08;101450.55;1784588;80;21044;-70
2022/03/01 01:07:37;;;;;;;8.83;3.80;;;;;;;1.80;55.42;101453.34;1784267;80;21108;-69
2022/03/01 01:10:04;;;;;;;7.65;3.60;;;;;;;1.76;55.85;101446.33;1784342;80;21087;-69
2022/03/01 01:12:33;;;;;;;6.30;3.58;;;;;;;1.73;56.11;101447.16;1784534;80;21111;-69
2022/03/01 01:15:03;;;;;;;8.00;2.90;;;;;;;1.75;57.57;101446.77;1784718;80;21541;-70
2022/03/01 01:17:31;;;;;;;9.90;3.70;;;;;;;1.88;57.27;101450.03;1784520;80;21052;-70
2022/03/01 01:20:02;;;;;;;10.82;4.35;;;;;;;1.94;56.81;101443.23;1784602;80;21114;-70
2022/03/01 01:22:41;;;;;;;8.80;3.62;;;;;;;1.91;56.30;101446.64;1784342;80;21563;-70
2022/03/01 01:25:15;;;;;;;6.67;3.37;;;;;;;1.82;57.60;101441.27;1784588;80;21040;-70
2022/03/01 01:27:45;;;;;;;8.75;3.83;;;;;;;1.95;59.17;101441.07;1784739;80;21126;-69
2022/03/01 01:30:17;;;;;;;7.20;3.83;;;;;;;2.15;58.56;101440.16;1784846;80;21056;-70
2022/03/01 01:32:43;;;;;;;8.63;4.08;;;;;;;2.09;58.29;101443.50;1784703;80;21099;-70
2022/03/01 01:35:12;;;;;;;7.17;3.37;;;;;;;2.11;58.88;101444.41;1784647;80;21068;-68
2022/03/01 01:37:41;;;;;;;8.03;3.92;;;;;;;2.12;58.71;101440.98;1784955;80;21032;-68
2022/03/01 01:40:13;;;;;;;6.70;3.45;;;;;;;2.13;57.98;101442.72;1781469;80;21009;-69
2022/03/01 01:42:39;;;;;;;8.00;4.10;;;;;;;2.03;58.75;101453.80;1779378;80;21190;-70
2022/03/01 01:45:08;;;;;;;8.35;3.87;;;;;;;1.94;59.84;101444.53;1779000;80;21122;-69
2022/03/01 01:47:35;;;;;;;6.78;3.62;;;;;;;1.91;59.97;101442.75;1778820;80;21476;-68
2022/03/01 01:50:04;;;;;;;9.38;3.70;;;;;;;1.84;61.38;101440.84;1748686;80;21068;-69
2022/03/01 01:52:31;;;;;;;8.83;4.50;;;;;;;1.77;61.83;101437.68;1779029;80;21004;-69
2022/03/01 01:55:00;;;;;;;9.23;4.65;;;;;;;1.68;63.60;101442.30;1757753;80;21547;-69
2022/03/01 01:57:27;;;;;;;10.82;4.67;;;;;;;1.57;64.47;101442.49;1748111;82;21073;-69
2022/03/01 01:59:57;;;;;;;7.55;4.05;;;;;;;1.49;65.30;101444.03;1747708;82;21020;-71
2022/03/01 02:02:25;;;;;;;7.62;3.72;;;;;;;1.46;66.90;101443.13;1747776;82;21075;-68
2022/03/01 02:04:51;;;;;;;14.03;4.47;;;;;;;1.58;68.23;101442.94;1747856;82;21068;-70
2022/03/01 02:07:20;;;;;;;11.30;4.87;;;;;;;1.73;68.53;101444.55;1748058;82;21044;-70
2022/03/01 02:09:46;;;;;;;12.30;4.78;;;;;;;1.74;68.57;101451.48;1747995;82;22176;-69
2022/03/01 02:12:14;;;;;;;9.85;4.92;;;;;;;1.69;68.50;101442.73;1747817;82;21042;-69
2022/03/01 02:14:40;;;;;;;10.70;5.10;;;;;;;1.70;70.07;101441.88;1748015;82;21014;-70
2022/03/01 02:17:10;;;;;;;9.85;4.83;;;;;;;1.77;70.36;101445.08;1747791;82;21469;-70
2022/03/01 02:19:37;;;;;;;11.33;5.45;;;;;;;1.75;70.21;101444.16;1747909;82;21020;-69
2022/03/01 02:22:07;;;;;;;10.60;4.58;;;;;;;1.67;71.28;101449.18;1748056;82;21121;-70
2022/03/01 02:24:34;;;;;;;9.75;4.92;;;;;;;1.68;71.69;101435.80;1747778;82;21481;-69
2022/03/01 02:27:04;;;;;;;9.65;5.08;;;;;;;1.62;72.06;101440.86;1747737;82;21021;-70
2022/03/01 02:29:31;;;;;;;10.53;4.70;;;;;;;1.71;72.44;101434.55;1748049;82;21557;-69
2022/03/01 02:32:05;;;;;;;9.50;4.10;;;;;;;1.80;73.43;101433.44;1747725;82;21079;-68
2022/03/01 02:34:31;;;;;;;9.25;4.87;;;;;;;1.91;72.41;101438.85;1747870;82;21974;-70
2022/03/01 02:36:58;;;;;;;13.58;5.15;;;;;;;2.08;72.68;101437.86;1747524;82;21064;-69
2022/03/01 02:39:24;;;;;;;10.23;5.03;;;;;;;2.02;72.32;101435.14;1748810;81;21021;-71
2022/03/01 02:41:51;;;;;;;10.35;4.80;;;;;;;1.92;72.83;101426.73;1753351;81;21029;-68
2022/03/01 02:44:18;;;;;;;9.95;5.17;;;;;;;1.83;73.14;101433.48;1753694;81;21020;-69
2022/03/01 02:46:44;;;;;;;8.50;4.95;;;;;;;1.79;73.62;101426.47;1753517;81;21501;-69
2022/03/01 02:49:11;;;;;;;8.80;4.95;;;;;;;1.95;74.69;101426.78;1753353;81;21540;-69
2022/03/01 02:51:38;;;;;;;9.93;4.92;;;;;;;1.97;73.43;101431.16;1753542;81;21049;-69
2022/03/01 02:54:06;;;;;;;9.08;4.67;;;;;;;1.88;73.88;101429.25;1763479;80;21068;-70
2022/03/01 02:56:33;;;;;;;10.43;4.95;;;;;;;1.99;76.27;101428.59;1784820;80;20973;-70
2022/03/01 02:58:59;;;;;;;9.43;5.05;;;;;;;2.22;74.86;101427.28;1784529;80;22284;-69
2022/03/01 03:01:27;;;;;;;9.88;5.12;;;;;;;2.12;73.89;101421.48;1784655;80;21025;-70
2022/03/01 03:03:54;;;;;;;8.73;4.12;;;;;;;1.98;73.83;101425.52;1784953;80;21025;-70
2022/03/01 03:06:20;;;;;;;8.45;4.47;;;;;;;1.95;75.18;101422.88;1784623;80;21073;-69
2022/03/01 03:08:47;;;;;;;10.60;5.55;;;;;;;1.97;74.64;101427.69;1784558;80;21057;-70
2022/03/01 03:11:13;;;;;;;8.28;4.53;;;;;;;2.09;74.53;101419.71;1784546;80;21131;-69
2022/03/01 03:13:40;;;;;;;11.43;5.80;;;;;;;2.06;73.86;101423.53;1784263;80;21060;-71
2022/03/01 03:16:10;;;;;;;9.05;4.78;;;;;;;2.07;74.58;101419.20;1784696;80;21103;-70
2022/03/01 03:18:38;;;;;;;9.07;4.07;;;;;;;2.16;74.70;101421.09;1784675;80;21087;-69
2022/03/01 03:21:04;;;;;;;7.92;4.50;;;;;;;2.33;75.07;101411.89;1784769;80;21458;-68
2022/03/01 03:23:33;;;;;;;7.75;4.03;;;;;;;2.56;73.80;101410.97;1784622;80;21959;-69
2022/03/01 03:25:59;;;;;;;8.60;4.58;;;;;;;2.49;73.54;101415.63;1784810;80;20985;-69
2022/03/01 03:28:25;;;;;;;7.08;3.85;;;;;;;2.43;73.61;101410.31;1784807;80;21540;-69
2022/03/01 03:30:54;;;;;;;10.48;4.97;;;;;;;2.53;73.94;101412.20;1784824;80;20985;-70
2022/03/01 03:33:22;;;;;;;7.67;4.00;;;;;;;2.59;72.88;101414.05;1784849;80;21028;-68
2022/03/01 03:35:49;;;;;;;7.45;3.95;;;;;;;2.38;72.94;101411.97;1784572;80;21087;-70
2022/03/01 03:38:16;;;;;;;7.53;4.58;;;;;;;2.29;73.34;101405.75;1784763;80;21032;-69
2022/03/01 03:40:42;;;;;;;9.25;4.33;;;;;;;2.22;73.41;101405.19;1784691;80;21060;-69
2022/03/01 03:43:09;;;;;;;9.15;4.25;;;;;;;2.40;75.15;101401.17;1784462;80;21013;-71
2022/03/01 03:45:36;;;;;;;7.58;3.95;;;;;;;2.45;73.31;101406.02;1784741;80;21104;-69
2022/03/01 03:48:02;;;;;;;6.95;4.00;;;;;;;2.40;73.29;101399.87;1784492;80;21080;-70
2022/03/01 03:50:30;;;;;;;7.37;4.20;;;;;;;2.33;72.95;101398.02;1784473;80;21080;-69
2022/03/01 03:52:56;;;;;;;8.30;3.95;;;;;;;2.17;74.24;101400.34;1784583;80;21509;-70
2022/03/01 03:55:23;;;;;;;6.90;3.52;;;;;;;2.19;74.34;101396.48;1758069;80;21037;-70
2022/03/01 03:57:50;;;;;;;6.42;3.25;;;;;;;2.10;74.96;101390.69;1753641;81;21524;-70
2022/03/01 04:00:17;;;;;;;7.55;3.70;;;;;;;2.26;76.53;101390.11;1753425;81;22116;-69
2022/03/01 04:02:47;;;;;;;8.70;3.52;;;;;;;2.55;74.46;101389.70;1753410;81;21020;-69
2022/03/01 04:05:15;;;;;;;10.23;4.87;;;;;;;2.55;74.58;101392.30;1753414;81;21580;-70
2022/03/01 04:07:43;;;;;;;9.48;4.08;;;;;;;2.52;73.22;101380.56;1753410;81;21986;-69
2022/03/01 04:10:11;;;;;;;5.85;3.30;;;;;;;2.35;73.38;101383.30;1753905;81;21040;-70
2022/03/01 04:12:41;;;;;;;6.03;3.75;;;;;;;2.14;73.99;101382.11;1753486;81;21131;-69
2022/03/01 04:15:10;;;;;;;6.90;3.80;;;;;;;2.26;76.39;101381.01;1753849;81;21049;-70
2022/03/01 04:17:36;;;;;;;7.45;3.40;;;;;;;2.38;74.93;101373.84;1753512;81;21045;-70
2022/03/01 04:20:05;;;;;;;9.30;4.05;;;;;;;2.55;75.01;101366.72;1753655;81;21100;-70
2022/03/01 04:22:32;;;;;;;6.22;3.77;;;;;;;2.75;74.58;101374.41;1753612;81;21093;-70
2022/03/01 04:24:58;;;;;;;10.32;4.12;;;;;;;2.73;73.52;101376.98;1753661;81;21100;-70
2022/03/01 04:27:25;;;;;;;7.87;4.08;;;;;;;2.82;73.44;101368.44;1753587;81;21051;-69
2022/03/01 04:29:53;;;;;;;8.53;4.10;;;;;;;2.72;72.02;101371.34;1753906;81;20997;-69
2022/03/01 04:32:19;;;;;;;7.60;3.33;;;;;;;2.55;72.56;101371.49;1753529;81;21016;-69
2022/03/01 04:34:45;;;;;;;6.25;3.40;;;;;;;2.41;73.58;101367.38;1753601;81;21076;-69
2022/03/01 04:37:12;;;;;;;7.17;3.55;;;;;;;2.48;73.77;101362.72;1753537;81;21138;-70
2022/03/01 04:39:38;;;;;;;5.97;2.98;;;;;;;2.31;72.90;101365.06;1753519;81;21052;-69
2022/03/01 04:42:06;;;;;;;6.58;3.67;;;;;;;2.09;73.99;101363.84;1747832;81;21040;-70
2022/03/01 04:44:34;;;;;;;6.33;3.50;;;;;;;2.16;74.70;101369.13;1747738;82;21017;-68
2022/03/01 04:47:04;;;;;;;5.53;3.20;;;;;;;1.99;74.35;101371.44;1748065;82;21043;-70
2022/03/01 04:49:32;;;;;;;7.95;3.60;;;;;;;1.84;75.96;101367.72;1747873;82;21188;-69
2022/03/01 04:51:58;;;;;;;7.70;3.95;;;;;;;2.07;76.08;101372.03;1747999;82;21036;-69
2022/03/01 04:54:26;;;;;;;6.72;3.37;;;;;;;2.06;75.43;101378.48;1747867;82;21067;-70
2022/03/01 04:56:52;;;;;;;6.28;3.70;;;;;;;2.06;75.76;101368.09;1747962;82;21054;-69
2022/03/01 04:59:18;;;;;;;6.00;3.25;;;;;;;2.09;75.55;101377.23;1747936;82;21104;-70
2022/03/01 05:01:45;;;;;;;5.95;3.52;;;;;;;2.02;75.50;101380.58;1769937;80;21166;-69
2022/03/01 05:04:11;;;;;;;8.53;4.50;;;;;;;2.12;76.78;101381.20;1778820;80;21036;-71
2022/03/01 05:06:39;;;;;;;8.20;3.72;;;;;;;2.31;74.74;101380.66;1778576;80;21554;-69
2022/03/01 05:09:05;;;;;;;6.00;3.33;;;;;;;2.26;74.14;101382.31;1778874;80;21740;-69
2022/03/01 05:11:35;;;;;;;6.80;3.30;;;;;;;2.30;75.15;101381.52;1778637;80;21569;-70
2022/03/01 05:14:02;;;;;;;5.72;3.40;;;;;;;2.45;74.26;101383.48;1778657;80;21153;-71
2022/03/01 05:16:29;;;;;;;7.67;3.42;;;;;;;2.46;73.73;101383.05;1778906;80;21020;-69
2022/03/01 05:18:56;;;;;;;6.45;3.02;;;;;;;2.40;74.87;101381.67;1778921;80;21013;-69
2022/03/01 05:21:22;;;;;;;7.05;3.27;;;;;;;2.40;74.06;101384.27;1778795;80;21018;-70
2022/03/01 05:23:49;;;;;;;6.60;3.60;;;;;;;2.29;74.45;101389.28;1778719;80;21569;-69
2022/03/01 05:26:18;;;;;;;6.35;3.72;;;;;;;2.41;75.85;101388.61;1779245;80;22136;-69
2022/03/01 05:28:45;;;;;;;8.85;3.90;;;;;;;2.49;73.83;101389.63;1778751;80;21064;-69
2022/03/01 05:31:11;;;;;;;7.45;3.92;;;;;;;2.42;73.58;101386.48;1779066;80;21084;-69
2022/03/01 05:33:39;;;;;;;6.50;4.00;;;;;;;2.29;73.74;101378.88;1778635;80;21068;-70
2022/03/01 05:36:06;;;;;;;5.25;3.52;;;;;;;2.16;74.26;101380.38;1778834;80;21113;-72
2022/03/01 05:38:32;;;;;;;7.37;3.83;;;;;;;2.06;75.00;101378.48;1778860;80;21088;-71
2022/03/01 05:40:59;;;;;;;5.47;3.50;;;;;;;2.05;75.84;101376.75;1780998;80;21021;-70
2022/03/01 05:43:26;;;;;;;6.47;3.85;;;;;;;2.06;76.64;101375.89;1784576;80;21091;-69
2022/03/01 05:45:53;;;;;;;5.62;3.30;;;;;;;2.24;76.12;101373.61;1784657;80;21044;-69
2022/03/01 05:48:20;;;;;;;9.60;4.22;;;;;;;2.47;75.34;101357.52;1784710;80;21084;-69
2022/03/01 05:50:46;;;;;;;6.08;3.40;;;;;;;2.70;75.25;101369.14;1784846;80;21104;-69
2022/03/01 05:53:13;;;;;;;7.53;3.75;;;;;;;2.79;73.85;101364.94;1784519;80;21084;-70
2022/03/01 05:55:40;;;;;;;6.22;3.47;;;;;;;2.75;72.49;101357.94;1754460;80;21076;-71
2022/03/01 05:58:07;;;;;;;7.55;3.90;;;;;;;2.44;73.11;101361.34;1753694;81;21123;-70
2022/03/01 06:00:34;;;;;;;9.18;4.40;;;;;;;2.30;73.87;101376.32;1760378;80;21067;-70
2022/03/01 06:03:01;;;;;;;8.73;4.58;;;;;;;2.17;74.40;101371.75;1784477;80;21080;-71
2022/03/01 06:05:29;;;;;;;7.03;3.72;;;;;;;2.09;74.85;101361.64;1784305;80;21089;-70
2022/03/01 06:07:59;;;;;;;6.25;3.37;;;;;;;2.23;77.38;101368.38;1784577;80;21009;-70
2022/03/01 06:10:26;;;;;;;6.67;3.85;;;;;;;2.52;76.02;101359.33;1783588;80;21037;-70
2022/03/01 06:12:53;;;;;;;7.55;4.05;;;;;;;2.63;73.96;101354.30;1784094;80;21398;-70
2022/03/01 06:15:20;;;;;;;7.62;4.22;;;;;;;2.41;73.74;101357.41;1784537;80;21199;-70
2022/03/01 06:17:47;;;;;;;8.35;4.42;;;;;;;2.29;74.79;101351.16;1784629;80;21021;-70
2022/03/01 06:20:13;;;;;;;6.00;3.55;;;;;;;2.23;74.44;101361.48;1784477;80;21019;-70
2022/03/01 06:22:40;;;;;;;8.60;4.37;;;;;;;2.26;75.24;101362.81;1784540;80;21540;-70
2022/03/01 06:25:08;;;;;;;7.05;4.12;;;;;;;2.28;74.75;101366.31;1784954;80;21564;-69
2022/03/01 06:27:36;;;;;;;8.45;4.30;;;;;;;2.28;74.50;101367.62;1756281;80;21392;-70
2022/03/01 06:30:05;;;;;;;10.15;4.75;;;;;;;2.28;74.76;101366.31;1784992;80;21039;-72
2022/03/01 06:32:31;;;;;;;12.58;5.90;;;;;;;2.33;74.60;101366.83;1784584;80;21021;-71
2022/03/01 06:34:58;;;;;;;8.45;4.50;;;;;;;2.27;74.77;101363.25;1784923;80;21540;-71
2022/03/01 06:37:24;;;;;;;7.17;4.30;;;;;;;2.30;75.15;101368.52;1785066;80;21052;-71
2022/03/01 06:39:51;;;;;;;10.15;4.55;;;;;;;2.37;74.69;101368.59;1784775;80;21072;-72
2022/03/01 06:42:18;;;;;;;8.03;4.58;;;;;;;2.36;74.13;101375.97;1784346;80;21044;-71
2022/03/01 06:44:45;;;;;;;11.80;5.47;;;;;;;2.36;74.79;101373.36;1784612;80;21516;-72
2022/03/01 06:47:12;;;;;;;8.25;4.70;;;;;;;2.33;74.18;101377.22;1785025;80;21025;-69
2022/03/01 06:49:39;;;;;;;8.45;4.45;;;;;;;2.16;74.59;101375.19;1784895;80;21041;-71
2022/03/01 06:52:07;;;;;;;7.42;4.05;;;;;;;2.06;75.28;101375.89;1784843;80;21068;-71
2022/03/01 06:55:38;;;;;;;8.47;4.70;;;;;;;2.01;75.89;101368.44;1804517;79;26518;-70
2022/03/01 06:58:05;;;;;;;9.73;4.92;;;;;;;2.00;75.92;101378.37;1754870;81;21527;-70
2022/03/01 07:00:32;;;;;;;9.58;4.95;;;;;;;1.87;75.95;101374.25;1731897;82;21200;-69
2022/03/01 07:02:59;;;;;;;8.40;4.72;;;;;;;1.76;77.11;101380.97;1731701;82;20943;-71
2022/03/01 07:05:26;;;;;;;8.23;4.78;;;;;;;1.71;76.82;101378.72;1731629;82;21026;-73
2022/03/01 07:07:52;;;;;;;10.25;5.00;;;;;;;1.65;77.54;101370.80;1732075;82;21615;-71
2022/03/01 07:10:19;;;;;;;7.65;4.87;;;;;;;1.82;78.50;101362.91;1731697;82;21026;-71
2022/03/01 07:12:47;;;;;;;9.13;4.92;;;;;;;1.99;77.40;101361.04;1731690;82;21942;-70
2022/03/01 07:15:14;;;;;;;8.48;4.90;;;;;;;2.15;77.90;101363.05;1715185;82;21014;-70
2022/03/01 07:17:41;;;;;;;8.90;5.10;;;;;;;2.10;76.08;101360.38;1732138;82;20963;-71
2022/03/01 07:20:09;;;;;;;10.50;5.62;;;;;;;2.01;76.24;101364.55;1731839;82;21268;-71
2022/03/01 07:22:35;;;;;;;11.28;5.80;;;;;;;1.95;76.55;101354.03;1732229;82;21070;-72
2022/03/01 07:25:02;;;;;;;10.30;5.60;;;;;;;1.99;77.01;101358.45;1731666;82;21027;-70
2022/03/01 07:27:28;;;;;;;15.10;9.00;;;;;;;2.05;76.69;101360.73;1731777;82;21043;-71
2022/03/01 07:29:55;;;;;;;11.22;6.30;;;;;;;2.02;76.51;101367.15;1731793;82;21022;-70
2022/03/01 07:32:22;;;;;;;28.47;9.50;;;;;;;2.00;75.95;101366.28;1731677;82;21062;-71
2022/03/01 07:34:48;;;;;;;11.95;5.87;;;;;;;1.93;76.68;101359.63;1700004;82;21056;-72
2022/03/01 07:37:15;;;;;;;12.05;5.95;;;;;;;1.93;77.30;101365.69;1665913;86;21155;-71
2022/03/01 07:39:42;;;;;;;11.55;6.08;;;;;;;2.06;77.81;101364.19;1665883;86;21127;-72
2022/03/01 07:42:08;;;;;;;9.50;4.67;;;;;;;2.28;77.65;101359.82;1665558;86;21620;-71
2022/03/01 07:44:37;;;;;;;18.52;8.38;;;;;;;2.54;77.95;101356.76;1665551;86;21564;-71
2022/03/01 07:47:07;;;;;;;11.50;6.25;;;;;;;2.64;74.46;101365.56;1665976;86;21123;-71
2022/03/01 07:49:37;;;;;;;11.25;6.12;;;;;;;2.53;74.81;101361.49;1665743;86;22301;-70
2022/03/01 07:52:04;;;;;;;10.90;5.67;;;;;;;2.46;75.20;101359.65;1665908;86;21088;-71
2022/03/01 07:54:31;;;;;;;26.70;9.28;;;;;;;2.54;76.23;101360.66;1677805;84;21100;-71
2022/03/01 07:56:57;;;;;;;12.10;6.50;;;;;;;2.60;74.79;101364.66;1674150;85;21037;-71
2022/03/01 07:59:27;;;;;;;12.10;6.05;;;;;;;2.44;74.40;101360.05;1691697;83;21449;-71
2022/03/01 08:01:55;;;;;;;11.03;5.75;;;;;;;2.24;75.17;101367.54;1691531;84;21147;-71
2022/03/01 08:04:21;;;;;;;10.63;6.30;;;;;;;2.14;76.46;101365.22;1691599;84;21031;-71
2022/03/01 08:06:49;;;;;;;11.15;6.08;;;;;;;2.27;77.10;101365.85;1691149;84;21067;-71
2022/03/01 08:09:16;;;;;;;12.00;6.47;;;;;;;2.41;76.13;101367.38;1691168;84;21052;-70
2022/03/01 08:11:43;;;;;;;11.18;6.08;;;;;;;2.47;75.41;101373.12;1691050;84;21620;-71
2022/03/01 08:14:10;;;;;;;14.70;5.50;;;;;;;2.42;75.42;101372.17;1691100;84;21184;-71
2022/03/01 08:16:37;;;;;;;32.60;10.20;;;;;;;2.40;76.00;101368.24;1691106;84;21567;-70
2022/03/01 08:19:03;;;;;;;28.65;9.90;;;;;;;2.42;76.36;101369.14;1690921;84;21096;-71
2022/03/01 08:21:30;;;;;;;20.75;7.58;;;;;;;2.53;76.08;101367.99;1691058;84;21088;-71
2022/03/01 08:23:57;;;;;;;14.85;7.40;;;;;;;2.55;75.24;101370.20;1691278;84;21060;-72
2022/03/01 08:26:26;;;;;;;14.47;7.58;;;;;;;2.41;75.42;101367.38;1690956;84;21216;-71
2022/03/01 08:28:53;;;;;;;25.05;10.03;;;;;;;2.38;76.53;101365.17;1691077;84;21063;-71
2022/03/01 08:31:19;;;;;;;11.22;6.55;;;;;;;2.52;76.12;101368.86;1690937;84;21056;-71
2022/03/01 08:33:47;;;;;;;15.93;9.80;;;;;;;2.55;75.18;101363.69;1690977;84;21123;-71
2022/03/01 08:36:13;;;;;;;16.00;7.72;;;;;;;2.42;75.53;101361.77;1691065;84;21079;-70
2022/03/01 08:38:42;;;;;;;13.50;6.92;;;;;;;2.31;75.99;101362.46;1691435;84;22129;-72
2022/03/01 08:41:09;;;;;;;17.05;6.95;;;;;;;2.25;76.95;101359.75;1690918;84;21567;-71
2022/03/01 08:43:36;;;;;;;35.65;10.65;;;;;;;2.31;77.41;101352.06;1691097;84;21052;-71
2022/03/01 08:46:02;;;;;;;22.82;8.25;;;;;;;2.36;76.98;101359.06;1691148;84;21080;-69
2022/03/01 08:48:29;;;;;;;15.00;7.08;;;;;;;2.35;77.12;101359.90;1691138;84;21634;-70
2022/03/01 08:50:56;;;;;;;33.23;10.38;;;;;;;2.37;76.79;101363.41;1691094;84;21947;-71
2022/03/01 08:53:23;;;;;;;27.98;9.78;;;;;;;2.33;77.06;101362.50;1665225;84;21061;-70
2022/03/01 08:55:49;;;;;;;20.10;8.60;;;;;;;2.30;77.35;101364.63;1683679;84;21037;-72
2022/03/01 08:58:17;;;;;;;26.73;11.40;;;;;;;2.33;78.00;101359.03;1681319;84;21600;-70
2022/03/01 09:00:45;;;;;;;15.72;8.35;;;;;;;2.47;78.39;101357.52;1681586;85;21092;-70
2022/03/01 09:03:12;;;;;;;17.35;9.15;;;;;;;2.62;77.17;101364.27;1681416;84;21138;-71
2022/03/01 09:05:38;;;;;;;26.40;9.18;;;;;;;2.66;76.47;101358.66;1681448;85;21096;-70
2022/03/01 09:08:05;;;;;;;17.27;8.90;;;;;;;2.66;76.41;101363.87;1646111;87;21082;-71
2022/03/01 09:10:35;;;;;;;14.65;8.30;;;;;;;2.73;76.73;101365.70;1681467;84;21097;-70
2022/03/01 09:13:02;;;;;;;16.65;8.00;;;;;;;2.76;76.11;101357.97;1646238;87;21098;-71
2022/03/01 09:15:32;;;;;;;29.92;12.20;;;;;;;2.71;76.21;101352.70;1681253;85;21520;-71
2022/03/01 09:18:05;;;;;;;26.87;10.55;;;;;;;2.73;76.40;101353.56;1681258;85;21029;-71
2022/03/01 09:20:34;;;;;;;26.60;11.03;;;;;;;2.88;77.07;101349.45;1681449;85;21107;-72
2022/03/01 09:23:03;;;;;;;16.07;8.90;;;;;;;3.08;75.49;101347.10;1681597;85;21567;-70
2022/03/01 09:25:29;;;;;;;12.25;6.30;;;;;;;3.16;75.43;101345.49;1646097;87;21999;-71
2022/03/01 09:27:57;;;;;;;10.53;6.30;;;;;;;3.39;75.92;101340.56;1681579;84;21833;-71
2022/03/01 09:30:24;;;;;;;14.45;8.15;;;;;;;3.57;73.37;101343.38;1686792;83;21053;-72
2022/03/01 09:32:50;;;;;;;15.28;8.18;;;;;;;3.57;73.30;101342.52;1681617;85;21063;-70
2022/03/01 09:35:17;;;;;;;13.05;7.33;;;;;;;3.52;73.01;101338.95;1718179;82;21553;-72
2022/03/01 09:37:44;;;;;;;13.88;6.75;;;;;;;3.54;73.64;101331.63;1718763;83;21096;-71
2022/03/01 09:40:12;;;;;;;12.82;7.37;;;;;;;3.67;73.70;101333.06;1718288;83;21132;-72
2022/03/01 09:42:40;;;;;;;25.57;8.63;;;;;;;3.77;72.20;101329.67;1681232;85;21049;-72
2022/03/01 09:45:09;;;;;;;13.43;7.45;;;;;;;3.68;72.76;101330.88;1681241;85;21073;-71
2022/03/01 09:47:37;;;;;;;14.05;8.00;;;;;;;3.72;72.34;101323.55;1718394;82;21059;-72
2022/03/01 09:50:05;;;;;;;19.77;8.30;;;;;;;3.70;72.49;101321.36;1718273;83;21572;-71
2022/03/01 09:52:32;;;;;;;16.00;7.72;;;;;;;3.75;72.55;101317.95;1681678;85;21166;-71
2022/03/01 09:54:59;;;;;;;19.60;9.25;;;;;;;3.78;72.26;101313.20;1718906;82;21063;-71
2022/03/01 09:57:25;;;;;;;14.18;7.50;;;;;;;3.74;71.20;101319.23;1720725;83;21051;-69
2022/03/01 09:59:54;;;;;;;13.05;6.87;;;;;;;3.66;72.03;101321.77;1720580;82;21023;-71
2022/03/01 10:02:20;;;;;;;17.70;6.90;;;;;;;3.80;72.32;101315.39;1720806;83;21550;-69
2022/03/01 10:04:54;;;;;;;13.55;6.50;;;;;;;3.96;72.60;101315.98;1720658;82;21733;-71
2022/03/01 10:07:31;;;;;;;11.43;6.53;;;;;;;4.12;71.63;101306.56;1720510;83;21630;-70
2022/03/01 10:10:07;;;;;;;11.55;6.37;;;;;;;4.12;70.75;101304.39;1720624;83;20980;-70
2022/03/01 10:12:36;;;;;;;16.00;8.28;;;;;;;4.21;71.62;101297.94;1720782;83;21015;-70
2022/03/01 10:15:07;;;;;;;14.40;8.00;;;;;;;4.41;70.17;101301.98;1720878;83;21091;-72
2022/03/01 10:17:48;;;;;;;11.78;6.83;;;;;;;4.24;69.70;101294.05;1720939;83;21106;-73
2022/03/01 10:20:18;;;;;;;20.02;9.03;;;;;;;4.14;71.08;101293.52;1720574;83;21090;-71
2022/03/01 10:22:48;;;;;;;14.70;8.60;;;;;;;4.30;71.04;101288.88;1720645;83;21626;-70
2022/03/01 10:25:18;;;;;;;13.90;7.80;;;;;;;4.37;70.62;101287.16;1702362;83;21739;-71
2022/03/01 10:27:50;;;;;;;25.90;10.82;;;;;;;4.40;70.57;101286.77;1686689;83;21078;-70
2022/03/01 10:30:32;;;;;;;17.35;8.68;;;;;;;4.34;70.09;101290.63;1663908;85;21094;-71
2022/03/01 10:33:14;;;;;;;14.45;7.55;;;;;;;4.23;70.25;101290.98;1663978;86;21062;-70
2022/03/01 10:35:45;;;;;;;12.40;7.00;;;;;;;4.09;71.22;101279.58;1663726;86;21138;-72
2022/03/01 10:38:18;;;;;;;14.83;8.03;;;;;;;4.07;71.65;101279.99;1663513;85;21079;-71
2022/03/01 10:40:45;;;;;;;11.70;7.12;;;;;;;4.13;71.37;101276.14;1647403;86;21620;-71
2022/03/01 10:43:14;;;;;;;13.40;7.72;;;;;;;4.28;71.85;101273.66;1663903;85;21071;-70
2022/03/01 10:45:44;;;;;;;14.63;7.83;;;;;;;4.66;71.04;101273.01;1663641;86;22272;-70
2022/03/01 10:48:29;;;;;;;17.30;8.65;;;;;;;4.75;70.01;101270.45;1663976;85;21262;-71
2022/03/01 10:51:08;;;;;;;15.90;8.13;;;;;;;4.76;69.85;101267.39;1663936;86;21130;-71
2022/03/01 10:53:38;;;;;;;18.57;9.75;;;;;;;4.88;69.71;101269.19;1669856;83;21032;-70
2022/03/01 10:56:10;;;;;;;16.37;8.85;;;;;;;4.92;68.81;101264.43;1720562;82;21499;-70
2022/03/01 10:58:38;;;;;;;22.15;9.73;;;;;;;4.80;69.40;101270.03;1720575;83;21059;-71
2022/03/01 11:01:06;;;;;;;15.95;8.23;;;;;;;4.69;68.44;101266.93;1720824;83;22289;-71
2022/03/01 11:03:32;;;;;;;17.77;7.80;;;;;;;4.48;68.61;101274.20;1720942;83;21523;-71
2022/03/01 11:06:00;;;;;;;17.37;8.45;;;;;;;4.25;69.85;101265.79;1720391;83;21641;-73
2022/03/01 11:08:34;;;;;;;17.50;9.65;;;;;;;4.08;70.47;101266.11;1720511;83;21075;-71
2022/03/01 11:11:07;;;;;;;18.10;7.65;;;;;;;3.94;70.86;101274.69;1720635;83;21016;-71
2022/03/01 11:13:40;;;;;;;16.23;8.63;;;;;;;3.80;72.12;101264.58;1720616;83;21042;-70
2022/03/01 11:16:42;;;;;;;17.17;8.60;;;;;;;3.90;72.39;101262.92;1720528;83;21087;-70
2022/03/01 11:19:52;;;;;;;19.87;9.50;;;;;;;3.87;71.50;101263.77;1720576;83;21058;-71
2022/03/01 11:22:44;;;;;;;21.68;10.55;;;;;;;3.68;72.16;101260.54;1720818;83;21151;-69
2022/03/01 11:25:25;;;;;;;21.50;10.23;;;;;;;3.60;73.62;101257.88;1720808;83;21086;-71
2022/03/01 11:27:53;;;;;;;21.80;10.78;;;;;;;3.61;73.72;101260.91;1720594;83;21099;-70
2022/03/01 11:30:34;;;;;;;20.57;10.23;;;;;;;3.58;74.10;101267.40;1720730;83;21067;-71
2022/03/01 11:33:00;;;;;;;;;;;;;;;3.57;74.55;101270.45;1723183;83;21099;-69
2022/03/01 11:35:30;;;;;;;20.30;9.35;;;;;;;3.67;74.32;101265.32;1720650;83;21734;-70